Time;durP1;ratioP1;P1;durP2;ratioP2;P2;SDS_P1;SDS_P2;PMS_P1;PMS_P2;Temp;Humidity;BMP_temperature;BMP_pressure;BME280_temperature;BME280_humidity;BME280_pressure;Samples;Min_cycle;Max_cycle;Signal;HPM_P1;HPM_P2
2023/12/01 00:01:01;;;;;;;18.90;8.82;;;;;;;0.74;93.83;100187.88;4949688;28;20497;-45
2023/12/01 00:03:28;;;;;;;16.77;10.07;;;;;;;0.74;93.63;100190.59;4949963;29;20043;-44
2023/12/01 00:05:55;;;;;;;15.82;8.70;;;;;;;0.73;93.32;100197.13;4950763;29;20051;-45
2023/12/01 00:08:23;;;;;;;17.00;8.93;;;;;;;0.67;93.58;100184.69;4950025;29;20054;-45
2023/12/01 00:10:50;;;;;;;19.00;8.38;;;;;;;0.64;93.54;100188.03;4950664;29;20047;-44
2023/12/01 00:13:18;;;;;;;18.58;10.48;;;;;;;0.57;93.96;100188.38;4953708;28;20097;-45
2023/12/01 00:15:46;;;;;;;25.80;11.52;;;;;;;0.51;93.77;100195.78;4953367;28;20054;-48
2023/12/01 00:18:13;;;;;;;20.95;10.70;;;;;;;0.48;94.08;100193.66;4950782;28;20059;-48
2023/12/01 00:20:43;;;;;;;16.83;9.82;;;;;;;0.47;94.27;100192.03;4932483;29;20054;-48
2023/12/01 00:23:10;;;;;;;19.27;9.15;;;;;;;0.49;94.55;100184.38;4950791;28;20066;-44
2023/12/01 00:25:37;;;;;;;15.18;8.20;;;;;;;0.51;94.69;100182.16;4950654;29;20061;-45
2023/12/01 00:28:05;;;;;;;18.00;8.02;;;;;;;0.54;94.63;100187.03;4949956;29;20043;-45
2023/12/01 00:30:32;;;;;;;14.13;8.23;;;;;;;0.56;94.64;100190.28;4943619;29;20051;-45
2023/12/01 00:33:02;;;;;;;14.73;8.68;;;;;;;0.56;94.63;100190.28;4950476;29;20039;-44
2023/12/01 00:35:30;;;;;;;15.48;7.45;;;;;;;0.57;94.58;100196.53;4950416;29;20043;-44
2023/12/01 00:37:58;;;;;;;14.40;7.30;;;;;;;0.59;94.51;100195.16;4949943;29;20039;-44
2023/12/01 00:40:25;;;;;;;13.13;7.75;;;;;;;0.65;94.52;100193.16;4950547;29;20414;-45
2023/12/01 00:42:52;;;;;;;14.35;7.85;;;;;;;0.68;94.56;100197.22;4950264;29;20679;-45
2023/12/01 00:45:20;;;;;;;11.35;5.65;;;;;;;0.71;94.87;100199.34;4949894;29;20036;-44
2023/12/01 00:47:47;;;;;;;8.57;5.95;;;;;;;0.76;94.92;100199.28;4950413;29;20403;-45
2023/12/01 00:50:14;;;;;;;12.10;7.03;;;;;;;0.81;94.70;100202.75;4963112;28;20058;-45
2023/12/01 00:52:42;;;;;;;9.80;6.88;;;;;;;0.86;94.81;100199.13;4937810;29;20040;-44
2023/12/01 00:55:10;;;;;;;19.27;8.98;;;;;;;0.91;94.56;100204.50;4949871;29;20047;-45
2023/12/01 00:57:37;;;;;;;13.95;7.10;;;;;;;0.94;94.31;100201.19;4950017;29;20067;-45
2023/12/01 01:00:06;;;;;;;11.77;6.55;;;;;;;0.96;94.54;100204.44;4948436;29;20066;-45
2023/12/01 01:02:35;;;;;;;11.85;6.60;;;;;;;0.96;94.45;100198.97;4950862;29;20047;-45
2023/12/01 01:05:03;;;;;;;9.93;5.90;;;;;;;0.95;94.43;100203.66;4949682;29;20054;-44
2023/12/01 01:07:30;;;;;;;13.32;6.60;;;;;;;0.96;94.70;100205.25;4950507;29;20058;-44
2023/12/01 01:09:57;;;;;;;8.52;6.07;;;;;;;0.96;94.40;100207.16;4946423;29;20040;-44
2023/12/01 01:12:25;;;;;;;12.23;5.68;;;;;;;0.98;94.44;100210.41;4950293;29;20047;-46
2023/12/01 01:14:53;;;;;;;9.95;5.72;;;;;;;0.98;94.56;100218.59;4949577;29;20063;-44
2023/12/01 01:17:20;;;;;;;9.38;5.57;;;;;;;0.99;94.47;100225.66;4949977;29;20039;-44
2023/12/01 01:19:48;;;;;;;9.63;5.45;;;;;;;1.01;94.48;100223.44;4948901;29;20142;-44
2023/12/01 01:22:16;;;;;;;6.55;4.78;;;;;;;1.04;94.52;100217.41;4959676;28;20050;-44
2023/12/01 01:24:43;;;;;;;10.73;5.63;;;;;;;1.07;94.60;100208.63;4952003;28;20047;-44
2023/12/01 01:27:11;;;;;;;11.43;4.85;;;;;;;1.06;94.71;100209.75;4950914;29;20396;-44
2023/12/01 01:29:39;;;;;;;10.77;5.43;;;;;;;1.05;94.60;100214.41;4950663;29;20050;-44
2023/12/01 01:32:06;;;;;;;7.22;4.30;;;;;;;1.10;94.35;100210.78;4940405;29;20556;-44
2023/12/01 01:34:33;;;;;;;11.43;5.25;;;;;;;1.10;94.38;100211.59;4948857;29;20053;-44
2023/12/01 01:37:00;;;;;;;11.02;5.03;;;;;;;1.09;94.59;100200.97;4950798;29;20047;-45
2023/12/01 01:39:28;;;;;;;10.18;5.45;;;;;;;1.07;94.61;100200.47;4950660;29;20051;-49
2023/12/01 01:41:56;;;;;;;8.90;5.13;;;;;;;1.06;94.41;100204.31;4950372;29;20054;-44
2023/12/01 01:44:23;;;;;;;9.32;5.80;;;;;;;1.07;94.44;100206.72;4949182;29;20051;-44
2023/12/01 01:46:52;;;;;;;8.20;5.28;;;;;;;1.08;94.36;100208.34;4950632;29;20047;-44
2023/12/01 01:49:25;;;;;;;14.50;6.35;;;;;;;1.08;94.75;100202.09;4949756;29;20043;-44
2023/12/01 01:51:58;;;;;;;10.55;5.28;;;;;;;1.08;94.43;100197.44;4948996;29;20051;-45
2023/12/01 01:54:26;;;;;;;10.75;5.82;;;;;;;1.09;94.74;100199.06;4950546;29;20051;-47
2023/12/01 01:56:54;;;;;;;8.90;4.05;;;;;;;1.12;94.53;100203.09;4950187;29;20039;-45
2023/12/01 01:59:22;;;;;;;9.80;4.78;;;;;;;1.14;94.73;100204.41;4950406;29;20039;-43
2023/12/01 02:01:50;;;;;;;10.43;4.57;;;;;;;1.19;94.80;100209.78;4949002;29;20047;-48
2023/12/01 02:04:18;;;;;;;5.60;3.50;;;;;;;1.22;94.75;100219.28;4950098;29;20494;-44
2023/12/01 02:06:48;;;;;;;7.65;3.95;;;;;;;1.25;94.59;100213.25;4948849;29;20043;-44
2023/12/01 02:09:16;;;;;;;7.10;4.72;;;;;;;1.29;94.63;100222.47;4948919;28;20506;-45
2023/12/01 02:11:43;;;;;;;7.68;4.60;;;;;;;1.31;94.60;100217.53;4949117;28;20050;-44
2023/12/01 02:14:13;;;;;;;6.90;4.35;;;;;;;1.32;94.20;100224.63;4949917;29;20418;-44
2023/12/01 02:16:45;;;;;;;7.18;4.90;;;;;;;1.33;94.75;100220.75;4950349;29;20075;-45
2023/12/01 02:19:14;;;;;;;7.30;4.32;;;;;;;1.34;94.77;100225.13;4949711;29;20055;-43
2023/12/01 02:21:45;;;;;;;6.53;3.53;;;;;;;1.38;94.76;100223.41;4949496;29;20141;-43
2023/12/01 02:24:14;;;;;;;6.97;3.97;;;;;;;1.41;94.74;100228.28;4950152;29;20087;-44
2023/12/01 02:26:41;;;;;;;6.82;3.15;;;;;;;1.43;94.80;100226.06;4949485;29;20525;-44
2023/12/01 02:29:08;;;;;;;3.05;2.63;;;;;;;1.46;94.94;100222.72;4949394;28;20054;-44
2023/12/01 02:31:36;;;;;;;3.58;2.03;;;;;;;1.50;95.31;100229.22;4948615;29;20051;-46
2023/12/01 02:34:03;;;;;;;2.45;1.40;;;;;;;1.51;95.36;100222.66;4949781;29;20267;-46
2023/12/01 02:36:31;;;;;;;4.00;1.65;;;;;;;1.53;95.46;100225.91;4951712;28;20514;-43
2023/12/01 02:38:59;;;;;;;2.30;1.38;;;;;;;1.57;95.56;100224.19;4953402;29;20050;-44
2023/12/01 02:41:26;;;;;;;1.90;1.13;;;;;;;1.60;95.36;100200.97;4953492;28;20062;-43
2023/12/01 02:43:54;;;;;;;1.85;1.08;;;;;;;1.64;95.51;100218.38;4953135;29;20417;-42
2023/12/01 02:46:22;;;;;;;1.23;1.00;;;;;;;1.65;95.46;100201.69;4953339;29;20051;-43
2023/12/01 02:48:51;;;;;;;1.30;1.20;;;;;;;1.67;95.82;100204.09;4953031;29;20035;-45
2023/12/01 02:51:19;;;;;;;2.30;1.48;;;;;;;1.66;95.60;100214.22;4948635;29;20402;-43
2023/12/01 02:53:46;;;;;;;2.97;1.65;;;;;;;1.63;95.81;100203.91;4952560;28;20074;-44
2023/12/01 02:56:13;;;;;;;2.47;1.60;;;;;;;1.59;95.85;100208.31;4953893;29;20063;-43
2023/12/01 02:58:41;;;;;;;4.10;2.05;;;;;;;1.54;96.21;100205.69;4951686;28;20051;-48
2023/12/01 03:01:08;;;;;;;7.35;2.53;;;;;;;1.50;96.44;100214.78;5040557;23;20048;-45
2023/12/01 03:03:35;;;;;;;4.13;2.72;;;;;;;1.44;96.29;100205.03;4952037;29;20519;-45
2023/12/01 03:06:03;;;;;;;7.70;3.55;;;;;;;1.39;96.34;100208.69;4933893;29;20106;-45
2023/12/01 03:08:31;;;;;;;6.97;4.20;;;;;;;1.33;97.01;100215.31;4951741;29;20043;-46
2023/12/01 03:10:59;;;;;;;6.70;3.70;;;;;;;1.32;97.29;100218.34;4951930;29;20043;-45
2023/12/01 03:13:26;;;;;;;7.55;4.18;;;;;;;1.30;96.96;100215.91;4952013;29;20601;-45
2023/12/01 03:15:53;;;;;;;7.78;4.55;;;;;;;1.28;97.20;100218.13;4951175;29;20051;-44
2023/12/01 03:18:21;;;;;;;5.78;3.80;;;;;;;1.29;97.59;100218.94;4951848;29;20050;-44
2023/12/01 03:20:50;;;;;;;6.97;4.30;;;;;;;1.27;97.43;100216.53;4944934;29;20508;-46
2023/12/01 03:23:17;;;;;;;4.05;3.58;;;;;;;1.28;97.62;100207.22;4952110;29;20043;-45
2023/12/01 03:25:44;;;;;;;9.30;3.90;;;;;;;1.24;97.84;100198.03;4939225;29;20051;-45
2023/12/01 03:28:12;;;;;;;14.65;4.55;;;;;;;1.19;97.85;100198.88;4944928;29;20055;-46
2023/12/01 03:30:39;;;;;;;5.68;4.07;;;;;;;1.12;97.84;100203.09;4944226;29;20059;-49
2023/12/01 03:33:07;;;;;;;6.40;3.85;;;;;;;1.06;97.88;100187.94;4951151;29;20054;-44
2023/12/01 03:35:34;;;;;;;6.38;4.47;;;;;;;1.00;97.95;100194.56;4925750;29;20055;-45
2023/12/01 03:38:02;;;;;;;6.50;3.67;;;;;;;0.95;98.21;100197.38;4949196;29;20046;-45
2023/12/01 03:40:29;;;;;;;9.15;4.05;;;;;;;0.92;98.22;100187.06;4950652;29;20489;-46
2023/12/01 03:42:56;;;;;;;6.65;4.10;;;;;;;0.87;98.26;100196.13;4943527;29;20047;-45
2023/12/01 03:45:24;;;;;;;5.85;3.10;;;;;;;0.84;98.36;100193.19;4951088;29;20406;-45
2023/12/01 03:47:51;;;;;;;8.02;4.57;;;;;;;0.82;98.45;100192.66;4942928;28;20051;-45
2023/12/01 03:50:20;;;;;;;8.07;4.50;;;;;;;0.76;98.69;100194.66;4949215;29;20054;-45
2023/12/01 03:52:51;;;;;;;9.43;4.85;;;;;;;0.71;98.46;100202.91;4945957;29;20061;-46
2023/12/01 03:55:19;;;;;;;7.57;5.45;;;;;;;0.68;98.66;100203.47;4937559;29;20071;-46
2023/12/01 03:57:46;;;;;;;8.18;4.63;;;;;;;0.68;98.79;100199.94;4949770;29;20051;-45
2023/12/01 04:00:16;;;;;;;8.52;5.30;;;;;;;0.65;98.79;100201.34;4948491;29;20051;-46
2023/12/01 04:02:47;;;;;;;12.30;5.32;;;;;;;0.64;98.73;100201.63;4957734;28;20064;-44
2023/12/01 04:05:21;;;;;;;8.57;5.25;;;;;;;0.60;98.83;100194.06;4949780;28;20043;-45
2023/12/01 04:07:54;;;;;;;7.28;4.20;;;;;;;0.58;98.51;100196.22;4964759;28;20050;-46
2023/12/01 04:10:25;;;;;;;6.03;3.95;;;;;;;0.57;98.68;100196.53;4969885;28;20050;-47
2023/12/01 04:12:55;;;;;;;7.75;5.10;;;;;;;0.54;98.71;100203.38;4970172;28;20046;-45
2023/12/01 04:15:26;;;;;;;10.15;4.97;;;;;;;0.54;98.59;100208.00;4970053;28;20054;-45
2023/12/01 04:17:54;;;;;;;6.38;4.40;;;;;;;0.52;98.60;100202.88;4968927;28;20386;-45
2023/12/01 04:20:25;;;;;;;11.40;4.78;;;;;;;0.52;98.36;100199.34;4966755;28;20043;-46
2023/12/01 04:22:57;;;;;;;10.00;4.47;;;;;;;0.50;98.19;100201.53;4963177;28;20057;-46
2023/12/01 04:25:25;;;;;;;10.27;6.13;;;;;;;0.44;98.28;100208.97;4960794;28;20799;-45
2023/12/01 04:27:55;;;;;;;9.48;5.80;;;;;;;0.37;98.14;100203.03;4969244;28;20054;-45
2023/12/01 04:30:23;;;;;;;13.98;8.45;;;;;;;0.29;98.04;100195.50;4960245;28;20047;-46
2023/12/01 04:32:53;;;;;;;12.85;6.28;;;;;;;0.22;98.15;100200.50;4956540;28;20042;-45
2023/12/01 04:35:28;;;;;;;12.50;7.07;;;;;;;0.17;98.15;100197.84;4968983;28;20043;-45
2023/12/01 04:37:57;;;;;;;12.82;6.32;;;;;;;0.13;98.08;100202.25;4966439;28;20053;-45
2023/12/01 04:40:26;;;;;;;15.90;6.82;;;;;;;0.12;98.11;100199.81;4969176;28;20058;-47
2023/12/01 04:42:55;;;;;;;13.13;7.47;;;;;;;0.08;98.25;100191.41;4959845;28;20051;-46
2023/12/01 04:45:25;;;;;;;9.85;6.65;;;;;;;0.05;98.04;100211.06;4962444;28;20050;-45
2023/12/01 04:47:55;;;;;;;9.32;5.97;;;;;;;0.05;98.49;100202.09;4968824;28;20433;-46
2023/12/01 04:50:24;;;;;;;10.27;5.53;;;;;;;0.05;98.44;100202.91;4961813;28;20054;-45
2023/12/01 04:52:56;;;;;;;8.38;6.93;;;;;;;0.06;98.37;100209.13;4961794;28;20070;-45
2023/12/01 04:55:28;;;;;;;9.40;6.13;;;;;;;0.04;98.72;100198.53;4960571;28;20046;-45
2023/12/01 04:57:56;;;;;;;9.15;4.93;;;;;;;0.04;98.66;100214.06;4969172;28;20102;-45
2023/12/01 05:00:26;;;;;;;8.68;4.70;;;;;;;0.04;98.52;100220.31;4967429;28;20061;-50
2023/12/01 05:03:00;;;;;;;7.53;5.00;;;;;;;0.03;98.51;100215.97;4968980;28;20066;-45
2023/12/01 05:05:30;;;;;;;6.40;3.95;;;;;;;0.05;98.72;100216.50;4968572;28;20412;-45
2023/12/01 05:07:59;;;;;;;10.40;5.05;;;;;;;0.05;98.62;100219.22;4969307;28;20282;-46
2023/12/01 05:10:29;;;;;;;9.10;4.47;;;;;;;0.04;98.75;100214.06;4967097;28;20065;-46
2023/12/01 05:12:58;;;;;;;7.45;4.75;;;;;;;0.05;98.64;100218.41;4968258;28;20474;-47
2023/12/01 05:15:28;;;;;;;9.18;5.25;;;;;;;0.06;98.71;100223.56;4968641;28;20055;-46
2023/12/01 05:18:07;;;;;;;8.50;4.57;;;;;;;0.11;98.82;100225.44;4968860;28;20061;-46
2023/12/01 05:20:34;;;;;;;8.00;5.13;;;;;;;0.14;98.71;100228.38;4963538;28;20066;-45
2023/12/01 05:23:10;;;;;;;13.23;6.07;;;;;;;0.15;98.56;100227.28;4967871;28;20058;-45
2023/12/01 05:25:41;;;;;;;10.63;6.28;;;;;;;0.14;98.60;100222.91;4967890;28;20043;-45
2023/12/01 05:28:10;;;;;;;13.85;7.68;;;;;;;0.12;98.48;100227.84;4967021;28;20404;-45
2023/12/01 05:30:43;;;;;;;12.15;5.65;;;;;;;0.13;98.52;100228.66;4961327;28;20053;-46
2023/12/01 05:33:11;;;;;;;12.00;6.38;;;;;;;0.08;98.35;100226.00;4962080;28;20054;-45
2023/12/01 05:35:42;;;;;;;13.35;7.10;;;;;;;0.02;98.17;100227.16;4962843;28;20054;-50
2023/12/01 05:38:10;;;;;;;11.65;6.70;;;;;;;-0.03;98.47;100228.03;4950482;28;20054;-45
2023/12/01 05:40:38;;;;;;;9.30;6.47;;;;;;;-0.05;98.36;100222.84;4967780;28;20062;-45
2023/12/01 05:43:06;;;;;;;13.77;6.43;;;;;;;-0.07;98.65;100224.22;4968643;28;20058;-49
2023/12/01 05:45:37;;;;;;;12.10;6.50;;;;;;;-0.09;98.70;100215.56;4968063;28;20620;-45
2023/12/01 05:48:08;;;;;;;13.85;6.43;;;;;;;-0.12;98.51;100221.56;4967823;28;20050;-47
2023/12/01 05:50:37;;;;;;;11.75;6.40;;;;;;;-0.15;98.58;100220.22;4968756;28;20055;-45
2023/12/01 05:53:06;;;;;;;10.85;5.93;;;;;;;-0.14;98.66;100224.59;4967859;28;20062;-45
2023/12/01 05:55:38;;;;;;;7.07;5.38;;;;;;;-0.12;98.94;100222.38;4965196;28;20405;-45
2023/12/01 05:58:12;;;;;;;9.27;6.45;;;;;;;-0.12;98.67;100219.66;4969157;28;20055;-45
2023/12/01 06:00:41;;;;;;;12.73;6.63;;;;;;;-0.12;98.75;100216.13;4966396;28;20062;-46
2023/12/01 06:03:10;;;;;;;11.07;5.75;;;;;;;-0.13;98.46;100219.94;4968510;28;20058;-45
2023/12/01 06:05:38;;;;;;;17.33;5.40;;;;;;;-0.12;98.72;100216.13;4968433;28;20397;-45
2023/12/01 06:08:08;;;;;;;11.40;6.60;;;;;;;-0.08;98.82;100225.34;4960484;28;20058;-45
2023/12/01 06:10:36;;;;;;;17.33;7.00;;;;;;;-0.09;98.71;100237.31;4969167;28;20050;-45
2023/12/01 06:13:04;;;;;;;10.63;6.90;;;;;;;-0.08;98.53;100230.78;4966824;28;20396;-45
2023/12/01 06:15:33;;;;;;;10.68;6.38;;;;;;;-0.11;98.65;100234.09;4966273;28;20049;-45
2023/12/01 06:18:02;;;;;;;14.52;7.75;;;;;;;-0.13;98.40;100231.63;4970184;28;20062;-45
2023/12/01 06:20:30;;;;;;;15.07;7.85;;;;;;;-0.17;98.45;100233.31;4972657;28;20412;-45
2023/12/01 06:23:06;;;;;;;15.35;7.53;;;;;;;-0.19;98.58;100232.00;4974787;28;20051;-45
2023/12/01 06:25:37;;;;;;;14.15;9.07;;;;;;;-0.22;98.47;100236.09;4975043;28;20051;-45
2023/12/01 06:28:05;;;;;;;14.45;8.73;;;;;;;-0.26;98.32;100231.50;4972805;28;20515;-45
2023/12/01 06:30:34;;;;;;;15.07;8.15;;;;;;;-0.27;98.50;100229.88;4974006;28;20510;-46
2023/12/01 06:33:06;;;;;;;16.35;8.95;;;;;;;-0.32;98.34;100227.22;4974335;28;20143;-46
2023/12/01 06:35:33;;;;;;;21.33;12.27;;;;;;;-0.36;98.44;100234.31;4961779;28;20051;-45
2023/12/01 06:38:01;;;;;;;15.25;9.55;;;;;;;-0.41;98.31;100218.84;4974213;28;20046;-45
2023/12/01 06:40:28;;;;;;;16.15;9.10;;;;;;;-0.43;98.70;100221.06;4975116;28;20065;-46
2023/12/01 06:42:57;;;;;;;19.70;10.05;;;;;;;-0.40;98.72;100225.13;4974554;28;20382;-48
2023/12/01 06:45:28;;;;;;;25.83;12.73;;;;;;;-0.40;98.81;100219.69;4974169;28;20038;-45
2023/12/01 06:47:59;;;;;;;20.63;10.52;;;;;;;-0.38;98.78;100225.63;4938298;29;20054;-44
2023/12/01 06:50:29;;;;;;;22.45;11.60;;;;;;;-0.38;98.64;100228.34;4950873;28;20725;-45
2023/12/01 06:53:00;;;;;;;17.60;8.35;;;;;;;-0.40;98.62;100236.00;4955515;29;20043;-45
2023/12/01 06:55:28;;;;;;;12.30;7.47;;;;;;;-0.42;98.36;100238.16;4971067;28;20066;-47
2023/12/01 06:57:56;;;;;;;16.45;8.95;;;;;;;-0.47;98.45;100230.03;4974317;28;20043;-45
2023/12/01 07:00:30;;;;;;;15.70;7.95;;;;;;;-0.50;98.51;100238.81;4973557;28;20045;-50
2023/12/01 07:03:00;;;;;;;14.35;8.52;;;;;;;-0.54;98.48;100235.00;4945641;29;20066;-45
2023/12/01 07:05:29;;;;;;;21.88;8.88;;;;;;;-0.57;98.43;100241.00;4973188;28;20065;-45
2023/12/01 07:07:58;;;;;;;17.05;8.80;;;;;;;-0.62;98.37;100239.97;4968538;28;20053;-45
2023/12/01 07:10:25;;;;;;;16.77;9.77;;;;;;;-0.64;98.58;100233.97;4968503;28;20400;-45
2023/12/01 07:12:53;;;;;;;18.38;12.80;;;;;;;-0.69;98.36;100225.88;4967264;28;20057;-47
2023/12/01 07:15:22;;;;;;;14.90;9.40;;;;;;;-0.75;98.61;100232.47;4951267;29;20058;-46
2023/12/01 07:17:54;;;;;;;16.80;9.75;;;;;;;-0.79;98.57;100228.66;4967798;28;20061;-45
2023/12/01 07:20:23;;;;;;;11.48;8.23;;;;;;;-0.79;98.62;100230.56;4967333;28;20878;-45
2023/12/01 07:22:52;;;;;;;17.20;9.73;;;;;;;-0.82;98.33;100240.09;4970676;28;20062;-50
2023/12/01 07:25:23;;;;;;;17.40;9.70;;;;;;;-0.83;98.64;100241.22;4963514;28;20051;-47
2023/12/01 07:27:58;;;;;;;14.70;9.30;;;;;;;-0.85;98.61;100245.31;4966809;28;20374;-47
2023/12/01 07:30:30;;;;;;;19.30;10.57;;;;;;;-0.86;98.65;100254.53;4965891;28;20061;-47
2023/12/01 07:33:00;;;;;;;16.25;10.68;;;;;;;-0.85;98.67;100259.69;4965103;28;20051;-45
2023/12/01 07:35:27;;;;;;;20.02;10.25;;;;;;;-0.82;98.73;100258.34;4961961;28;20054;-46
2023/12/01 07:37:55;;;;;;;22.13;10.63;;;;;;;-0.81;98.36;100259.94;4959529;28;20531;-45
2023/12/01 07:40:23;;;;;;;20.35;10.63;;;;;;;-0.82;98.35;100271.91;4966338;28;20035;-45
2023/12/01 07:42:56;;;;;;;20.30;11.77;;;;;;;-0.85;98.48;100275.19;4965935;28;20047;-47
2023/12/01 07:45:25;;;;;;;;;;;;;;;-0.87;98.57;100269.22;4964594;28;20069;-48
2023/12/01 07:47:54;;;;;;;20.63;10.57;;;;;;;-0.87;98.45;100271.94;4964141;28;19977;-45
2023/12/01 07:50:25;;;;;;;16.73;9.38;;;;;;;-0.88;98.65;100273.84;4951568;28;20054;-45
2023/12/01 07:52:54;;;;;;;16.85;10.30;;;;;;;-0.89;98.46;100276.84;4951740;28;20051;-49
2023/12/01 07:55:24;;;;;;;15.60;8.95;;;;;;;-0.90;98.65;100278.75;4953991;28;20043;-46
2023/12/01 07:57:51;;;;;;;16.95;9.27;;;;;;;-0.91;98.76;100274.41;4964896;28;20055;-47
2023/12/01 08:00:19;;;;;;;17.98;9.18;;;;;;;-0.95;98.60;100289.63;4970554;28;20509;-46
2023/12/01 08:02:52;;;;;;;15.45;9.60;;;;;;;-0.96;98.90;100282.59;4969930;28;20063;-45
2023/12/01 08:05:23;;;;;;;12.93;9.15;;;;;;;-0.97;98.83;100291.84;4953312;28;20690;-45
2023/12/01 08:07:53;;;;;;;17.13;9.80;;;;;;;-0.96;98.78;100281.78;4951052;28;20047;-44
2023/12/01 08:10:24;;;;;;;;;;;;;;;-1.00;98.80;100286.94;4960174;28;20074;-44
2023/12/01 08:12:56;;;;;;;18.13;8.18;;;;;;;-1.02;98.98;100289.16;4961609;28;19923;-47
2023/12/01 08:15:26;;;;;;;;;;;;;;;-1.05;99.06;100292.41;4958484;28;20484;-44
2023/12/01 08:17:56;;;;;;;15.60;8.40;;;;;;;-1.05;99.01;100289.69;4958554;28;19926;-43
2023/12/01 08:20:24;;;;;;;11.65;8.30;;;;;;;-1.04;99.10;100291.34;4962546;28;20090;-44
2023/12/01 08:22:51;;;;;;;19.95;9.35;;;;;;;-1.05;98.84;100297.84;4964776;28;20397;-46
2023/12/01 08:25:22;;;;;;;12.02;8.27;;;;;;;-1.03;99.22;100294.88;4969146;28;20401;-46
2023/12/01 08:27:52;;;;;;;19.30;9.05;;;;;;;-1.04;99.33;100299.50;4966858;28;20414;-43
2023/12/01 08:30:19;;;;;;;17.27;9.02;;;;;;;-1.00;99.44;100299.72;4966378;28;20057;-45
2023/12/01 08:32:48;;;;;;;15.20;8.63;;;;;;;-0.97;99.34;100305.41;4951117;28;20556;-43
2023/12/01 08:35:16;;;;;;;17.08;9.55;;;;;;;-0.96;99.33;100293.47;4968640;28;20051;-43
2023/12/01 08:37:43;;;;;;;19.45;9.90;;;;;;;-0.93;99.31;100294.81;4968704;28;20054;-43
2023/12/01 08:40:11;;;;;;;18.95;10.40;;;;;;;-0.90;99.38;100303.19;4960308;28;20051;-43
2023/12/01 08:42:41;;;;;;;26.42;15.18;;;;;;;-0.87;99.11;100296.38;4965283;28;20054;-46
2023/12/01 08:45:10;;;;;;;25.77;14.50;;;;;;;-0.81;99.54;100301.53;4968823;28;20540;-44
2023/12/01 08:47:40;;;;;;;34.85;19.40;;;;;;;-0.77;99.33;100296.34;4968953;28;20054;-43
2023/12/01 08:50:08;;;;;;;34.58;21.67;;;;;;;-0.77;99.31;100302.56;4958483;28;20062;-44
2023/12/01 08:52:37;;;;;;;27.45;14.60;;;;;;;-0.76;99.25;100298.78;4966769;28;20054;-44
2023/12/01 08:55:06;;;;;;;29.05;12.18;;;;;;;-0.74;99.18;100307.44;4966421;28;20050;-42
2023/12/01 08:57:33;;;;;;;15.95;10.20;;;;;;;-0.73;99.19;100311.81;4967904;28;20051;-45
2023/12/01 09:00:01;;;;;;;17.25;10.40;;;;;;;-0.71;99.38;100314.22;4969004;28;20598;-43
2023/12/01 09:02:28;;;;;;;18.38;10.00;;;;;;;-0.67;99.39;100321.56;4966145;28;20067;-44
2023/12/01 09:04:56;;;;;;;14.35;8.95;;;;;;;-0.62;99.44;100310.66;4966543;28;20050;-43
2023/12/01 09:07:23;;;;;;;14.50;8.65;;;;;;;-0.60;99.33;100313.06;4964895;28;20679;-45
2023/12/01 09:09:58;;;;;;;14.85;9.27;;;;;;;-0.59;99.20;100320.16;4955075;28;20046;-44
2023/12/01 09:12:26;;;;;;;18.23;9.23;;;;;;;-0.59;99.15;100320.16;4967390;28;20471;-45
2023/12/01 09:14:54;;;;;;;13.68;7.63;;;;;;;-0.58;99.27;100320.97;4961027;28;20070;-45
2023/12/01 09:17:22;;;;;;;16.20;9.07;;;;;;;-0.54;99.50;100316.56;4964515;28;20078;-43
2023/12/01 09:19:50;;;;;;;17.40;8.38;;;;;;;-0.49;99.37;100324.69;4954883;28;20390;-44
2023/12/01 09:22:17;;;;;;;15.95;9.30;;;;;;;-0.45;99.07;100331.19;4967595;28;20046;-44
2023/12/01 09:24:45;;;;;;;11.98;7.75;;;;;;;-0.35;99.29;100325.69;4968918;28;20040;-43
2023/12/01 09:27:13;;;;;;;13.15;8.07;;;;;;;-0.28;99.09;100337.03;4967418;28;20042;-44
2023/12/01 09:29:41;;;;;;;17.02;9.32;;;;;;;-0.22;99.23;100335.91;4956970;28;20054;-46
2023/12/01 09:32:08;;;;;;;12.55;7.97;;;;;;;-0.14;99.25;100338.03;4959237;28;20501;-44
2023/12/01 09:34:36;;;;;;;18.58;9.93;;;;;;;-0.07;99.10;100343.94;4967060;28;20057;-43
2023/12/01 09:37:03;;;;;;;17.35;8.90;;;;;;;0.00;99.00;100345.25;4967700;28;20058;-45
2023/12/01 09:39:30;;;;;;;15.52;8.40;;;;;;;0.01;99.00;100354.22;4967713;28;20046;-45
2023/12/01 09:42:05;;;;;;;17.02;8.88;;;;;;;0.04;98.83;100347.41;4956812;28;20046;-44
2023/12/01 09:44:34;;;;;;;13.10;7.47;;;;;;;0.08;99.08;100338.38;4961154;28;20509;-45
2023/12/01 09:47:03;;;;;;;15.27;8.70;;;;;;;0.10;98.96;100349.81;4962315;28;20047;-53
2023/12/01 09:49:33;;;;;;;20.50;9.32;;;;;;;0.14;99.17;100350.84;4967323;28;20050;-43
2023/12/01 09:52:04;;;;;;;16.38;10.32;;;;;;;0.18;99.12;100357.34;4966842;28;20047;-45
2023/12/01 09:54:31;;;;;;;16.92;9.55;;;;;;;0.20;99.03;100352.44;4949530;28;20061;-44
2023/12/01 09:57:06;;;;;;;17.23;10.20;;;;;;;0.22;98.98;100352.94;4966776;28;20105;-46
2023/12/01 09:59:37;;;;;;;20.00;9.13;;;;;;;0.24;99.19;100361.63;4961782;28;20046;-45
2023/12/01 10:02:05;;;;;;;16.65;9.88;;;;;;;0.25;99.32;100360.53;4951160;28;20055;-45
2023/12/01 10:04:33;;;;;;;18.10;10.23;;;;;;;0.25;99.22;100368.72;4961583;28;20074;-44
2023/12/01 10:07:03;;;;;;;15.85;9.32;;;;;;;0.25;99.04;100360.53;4967187;28;20091;-44
2023/12/01 10:09:35;;;;;;;17.15;9.18;;;;;;;0.26;99.08;100373.06;4955738;28;20548;-44
2023/12/01 10:12:08;;;;;;;17.27;7.70;;;;;;;0.28;99.35;100368.16;4957739;28;20489;-43
2023/12/01 10:14:36;;;;;;;22.95;10.65;;;;;;;0.31;99.09;100373.03;4967402;28;20039;-45
2023/12/01 10:17:05;;;;;;;24.13;9.75;;;;;;;0.36;99.26;100372.97;4967306;28;20515;-44
2023/12/01 10:19:34;;;;;;;20.58;9.95;;;;;;;0.39;99.36;100369.69;4962913;28;20039;-44
2023/12/01 10:22:01;;;;;;;13.80;8.95;;;;;;;0.46;99.36;100367.41;4958351;28;20051;-43
2023/12/01 10:24:30;;;;;;;15.52;9.88;;;;;;;0.51;99.39;100367.38;4953109;28;20050;-44
2023/12/01 10:27:02;;;;;;;14.07;9.65;;;;;;;0.58;99.14;100362.38;4966463;28;20058;-43
2023/12/01 10:29:32;;;;;;;20.80;10.27;;;;;;;0.65;99.32;100363.97;4962774;28;20039;-43
2023/12/01 10:32:11;;;;;;;13.57;8.60;;;;;;;0.69;99.00;100367.75;4958402;28;20050;-43
2023/12/01 10:34:40;;;;;;;18.10;9.23;;;;;;;0.76;99.20;100366.28;4954192;28;20049;-42
2023/12/01 10:37:08;;;;;;;13.57;9.20;;;;;;;0.84;99.28;100378.47;4961826;28;20393;-45
2023/12/01 10:39:37;;;;;;;19.98;9.57;;;;;;;0.92;99.30;100383.28;4964319;28;20054;-43
2023/12/01 10:42:07;;;;;;;19.27;9.57;;;;;;;0.95;99.20;100378.06;4968231;28;20051;-43
2023/12/01 10:44:36;;;;;;;22.50;10.15;;;;;;;1.00;99.08;100377.19;4967210;28;20047;-43
2023/12/01 10:47:04;;;;;;;16.92;9.80;;;;;;;1.04;99.22;100380.94;4965955;28;20039;-47
2023/12/01 10:49:33;;;;;;;19.05;9.63;;;;;;;1.05;99.01;100377.13;4968047;28;20075;-43
2023/12/01 10:52:01;;;;;;;18.27;8.77;;;;;;;1.08;99.04;100380.09;4966473;28;20087;-42
2023/12/01 10:54:29;;;;;;;20.73;10.23;;;;;;;1.10;99.25;100383.31;4959245;28;20048;-44
2023/12/01 10:57:05;;;;;;;21.08;10.10;;;;;;;1.12;99.22;100383.84;4963613;28;20055;-44
2023/12/01 10:59:34;;;;;;;14.82;9.80;;;;;;;1.12;99.07;100378.38;4970644;28;20050;-45
2023/12/01 11:02:01;;;;;;;15.82;8.82;;;;;;;1.11;99.15;100384.16;4965503;28;20916;-43
2023/12/01 11:04:33;;;;;;;18.63;9.73;;;;;;;1.03;98.99;100380.13;4964688;28;20066;-43
2023/12/01 11:07:20;;;;;;;;;;;;;;;0.99;98.88;100384.53;4970240;28;20046;-43
2023/12/01 11:09:47;;;;;;;16.33;9.27;;;;;;;0.90;98.85;100378.09;4954307;28;20646;-43
2023/12/01 11:12:20;;;;;;;19.65;10.38;;;;;;;0.84;98.81;100371.09;4941633;28;20511;-44
2023/12/01 11:14:51;;;;;;;19.42;9.68;;;;;;;0.83;99.03;100379.56;4968734;28;20583;-44
2023/12/01 11:17:18;;;;;;;17.02;10.15;;;;;;;0.82;99.15;100377.94;4964388;28;20051;-44
2023/12/01 11:19:46;;;;;;;21.60;11.25;;;;;;;0.83;99.21;100374.09;4964314;28;20609;-47
2023/12/01 11:22:27;;;;;;;20.70;10.35;;;;;;;0.83;99.54;100380.38;4966116;28;20061;-45
2023/12/01 11:24:56;;;;;;;15.15;9.10;;;;;;;0.83;99.39;100368.66;4970437;28;20058;-44
2023/12/01 11:27:26;;;;;;;16.85;10.32;;;;;;;0.86;99.60;100376.25;4965413;28;20050;-43
2023/12/01 11:30:12;;;;;;;20.30;10.70;;;;;;;0.91;99.67;100381.63;4968623;28;20489;-45
2023/12/01 11:32:41;;;;;;;17.33;10.52;;;;;;;0.96;99.61;100376.13;4965673;28;20051;-45